sensor_id;sensor_type;location;lat;lon;timestamp;P1;durP1;ratioP1;P2;durP2;ratioP2
69789;SDS011;57064;52.046;4.800;2023-04-25T00:00:01;14.60;;;3.35;;
69789;SDS011;57064;52.046;4.800;2023-04-25T00:02:31;14.38;;;3.83;;
69789;SDS011;57064;52.046;4.800;2023-04-25T00:04:59;12.18;;;3.63;;
69789;SDS011;57064;52.046;4.800;2023-04-25T00:07:26;15.55;;;4.18;;
69789;SDS011;57064;52.046;4.800;2023-04-25T00:09:52;13.10;;;3.70;;
69789;SDS011;57064;52.046;4.800;2023-04-25T00:12:18;15.30;;;3.75;;
69789;SDS011;57064;52.046;4.800;2023-04-25T00:14:45;13.32;;;3.40;;
69789;SDS011;57064;52.046;4.800;2023-04-25T00:17:11;14.23;;;3.60;;
69789;SDS011;57064;52.046;4.800;2023-04-25T00:19:38;18.25;;;4.13;;
69789;SDS011;57064;52.046;4.800;2023-04-25T00:22:04;11.73;;;3.65;;
69789;SDS011;57064;52.046;4.800;2023-04-25T00:24:30;17.80;;;3.60;;
69789;SDS011;57064;52.046;4.800;2023-04-25T00:26:56;15.55;;;4.65;;
69789;SDS011;57064;52.046;4.800;2023-04-25T00:29:22;18.63;;;3.83;;
69789;SDS011;57064;52.046;4.800;2023-04-25T00:31:48;13.93;;;3.50;;
69789;SDS011;57064;52.046;4.800;2023-04-25T00:34:14;16.90;;;3.20;;
69789;SDS011;57064;52.046;4.800;2023-04-25T00:36:40;14.90;;;4.13;;
69789;SDS011;57064;52.046;4.800;2023-04-25T00:39:07;9.52;;;3.72;;
69789;SDS011;57064;52.046;4.800;2023-04-25T00:41:33;12.05;;;4.10;;
69789;SDS011;57064;52.046;4.800;2023-04-25T00:43:59;11.75;;;3.75;;
69789;SDS011;57064;52.046;4.800;2023-04-25T00:46:27;10.35;;;3.35;;
69789;SDS011;57064;52.046;4.800;2023-04-25T00:48:53;12.30;;;3.63;;
69789;SDS011;57064;52.046;4.800;2023-04-25T00:51:20;15.95;;;4.60;;
69789;SDS011;57064;52.046;4.800;2023-04-25T00:53:47;11.93;;;3.63;;
69789;SDS011;57064;52.046;4.800;2023-04-25T00:56:14;16.95;;;3.75;;
69789;SDS011;57064;52.046;4.800;2023-04-25T00:58:41;12.90;;;3.65;;
69789;SDS011;57064;52.046;4.800;2023-04-25T01:01:08;10.65;;;3.30;;
69789;SDS011;57064;52.046;4.800;2023-04-25T01:03:36;17.77;;;5.07;;
69789;SDS011;57064;52.046;4.800;2023-04-25T01:06:10;14.75;;;3.05;;
69789;SDS011;57064;52.046;4.800;2023-04-25T01:08:37;12.15;;;3.50;;
69789;SDS011;57064;52.046;4.800;2023-04-25T01:11:04;16.75;;;3.88;;
69789;SDS011;57064;52.046;4.800;2023-04-25T01:13:31;20.45;;;3.25;;
69789;SDS011;57064;52.046;4.800;2023-04-25T01:15:58;14.82;;;3.60;;
69789;SDS011;57064;52.046;4.800;2023-04-25T01:18:25;11.75;;;4.13;;
69789;SDS011;57064;52.046;4.800;2023-04-25T01:20:51;12.50;;;3.70;;
69789;SDS011;57064;52.046;4.800;2023-04-25T01:23:19;15.27;;;3.38;;
69789;SDS011;57064;52.046;4.800;2023-04-25T01:25:46;12.65;;;3.75;;
69789;SDS011;57064;52.046;4.800;2023-04-25T01:28:13;16.80;;;4.18;;
69789;SDS011;57064;52.046;4.800;2023-04-25T01:30:40;16.52;;;3.72;;
69789;SDS011;57064;52.046;4.800;2023-04-25T01:33:07;19.77;;;4.32;;
69789;SDS011;57064;52.046;4.800;2023-04-25T01:35:33;13.80;;;3.63;;
69789;SDS011;57064;52.046;4.800;2023-04-25T01:38:00;14.30;;;3.30;;
69789;SDS011;57064;52.046;4.800;2023-04-25T01:40:26;13.70;;;3.38;;
69789;SDS011;57064;52.046;4.800;2023-04-25T01:42:53;16.80;;;4.07;;
69789;SDS011;57064;52.046;4.800;2023-04-25T01:45:19;15.98;;;4.30;;
69789;SDS011;57064;52.046;4.800;2023-04-25T01:47:46;16.85;;;5.05;;
69789;SDS011;57064;52.046;4.800;2023-04-25T01:50:15;16.95;;;4.15;;
69789;SDS011;57064;52.046;4.800;2023-04-25T01:52:42;12.65;;;3.50;;
69789;SDS011;57064;52.046;4.800;2023-04-25T01:55:08;11.77;;;3.42;;
69789;SDS011;57064;52.046;4.800;2023-04-25T01:57:34;10.57;;;3.03;;
69789;SDS011;57064;52.046;4.800;2023-04-25T02:00:03;13.07;;;2.85;;
69789;SDS011;57064;52.046;4.800;2023-04-25T02:02:31;13.05;;;2.80;;
69789;SDS011;57064;52.046;4.800;2023-04-25T02:04:57;14.77;;;3.80;;
69789;SDS011;57064;52.046;4.800;2023-04-25T02:07:23;13.98;;;3.28;;
69789;SDS011;57064;52.046;4.800;2023-04-25T02:09:50;10.30;;;3.33;;
69789;SDS011;57064;52.046;4.800;2023-04-25T02:12:17;14.63;;;3.75;;
69789;SDS011;57064;52.046;4.800;2023-04-25T02:14:43;10.95;;;2.78;;
69789;SDS011;57064;52.046;4.800;2023-04-25T02:17:09;14.30;;;3.08;;
69789;SDS011;57064;52.046;4.800;2023-04-25T02:19:37;16.42;;;3.40;;
69789;SDS011;57064;52.046;4.800;2023-04-25T02:22:03;15.93;;;3.70;;
69789;SDS011;57064;52.046;4.800;2023-04-25T02:24:29;17.63;;;4.82;;
69789;SDS011;57064;52.046;4.800;2023-04-25T02:26:56;11.65;;;2.47;;
69789;SDS011;57064;52.046;4.800;2023-04-25T02:29:22;14.38;;;3.05;;
69789;SDS011;57064;52.046;4.800;2023-04-25T02:31:48;10.95;;;2.30;;
69789;SDS011;57064;52.046;4.800;2023-04-25T02:34:15;12.77;;;2.75;;
69789;SDS011;57064;52.046;4.800;2023-04-25T02:36:41;14.07;;;3.00;;
69789;SDS011;57064;52.046;4.800;2023-04-25T02:39:08;9.43;;;2.58;;
69789;SDS011;57064;52.046;4.800;2023-04-25T02:41:36;13.60;;;2.90;;
69789;SDS011;57064;52.046;4.800;2023-04-25T02:44:03;14.82;;;2.65;;
69789;SDS011;57064;52.046;4.800;2023-04-25T02:46:29;14.07;;;2.58;;
69789;SDS011;57064;52.046;4.800;2023-04-25T02:48:55;14.23;;;3.22;;
69789;SDS011;57064;52.046;4.800;2023-04-25T02:51:21;9.15;;;2.83;;
69789;SDS011;57064;52.046;4.800;2023-04-25T02:53:47;16.20;;;2.92;;
69789;SDS011;57064;52.046;4.800;2023-04-25T02:56:13;16.25;;;3.53;;
69789;SDS011;57064;52.046;4.800;2023-04-25T02:58:39;15.75;;;3.83;;
69789;SDS011;57064;52.046;4.800;2023-04-25T03:01:05;8.45;;;2.58;;
69789;SDS011;57064;52.046;4.800;2023-04-25T03:03:31;11.55;;;2.67;;
69789;SDS011;57064;52.046;4.800;2023-04-25T03:05:57;11.13;;;2.95;;
69789;SDS011;57064;52.046;4.800;2023-04-25T03:08:23;10.77;;;2.65;;
69789;SDS011;57064;52.046;4.800;2023-04-25T03:10:50;11.02;;;3.22;;
69789;SDS011;57064;52.046;4.800;2023-04-25T03:13:17;15.82;;;2.58;;
69789;SDS011;57064;52.046;4.800;2023-04-25T03:15:43;8.35;;;2.70;;
69789;SDS011;57064;52.046;4.800;2023-04-25T03:18:09;10.75;;;2.35;;
69789;SDS011;57064;52.046;4.800;2023-04-25T03:20:35;12.38;;;2.05;;
69789;SDS011;57064;52.046;4.800;2023-04-25T03:23:01;8.45;;;2.58;;
69789;SDS011;57064;52.046;4.800;2023-04-25T03:25:27;11.10;;;2.58;;
69789;SDS011;57064;52.046;4.800;2023-04-25T03:27:53;5.40;;;2.60;;
69789;SDS011;57064;52.046;4.800;2023-04-25T03:30:20;10.00;;;2.90;;
69789;SDS011;57064;52.046;4.800;2023-04-25T03:32:46;10.27;;;1.92;;
69789;SDS011;57064;52.046;4.800;2023-04-25T03:35:12;6.82;;;2.30;;
69789;SDS011;57064;52.046;4.800;2023-04-25T03:37:38;10.80;;;2.33;;
69789;SDS011;57064;52.046;4.800;2023-04-25T03:40:05;7.20;;;2.22;;
69789;SDS011;57064;52.046;4.800;2023-04-25T03:42:32;11.82;;;2.20;;
69789;SDS011;57064;52.046;4.800;2023-04-25T03:44:58;7.25;;;2.17;;
69789;SDS011;57064;52.046;4.800;2023-04-25T03:47:24;9.73;;;2.22;;
69789;SDS011;57064;52.046;4.800;2023-04-25T03:49:50;9.13;;;2.60;;
69789;SDS011;57064;52.046;4.800;2023-04-25T03:52:16;10.48;;;2.83;;
69789;SDS011;57064;52.046;4.800;2023-04-25T03:54:43;16.42;;;3.00;;
69789;SDS011;57064;52.046;4.800;2023-04-25T03:57:09;13.07;;;3.97;;
69789;SDS011;57064;52.046;4.800;2023-04-25T03:59:35;10.75;;;2.30;;
69789;SDS011;57064;52.046;4.800;2023-04-25T04:02:01;15.98;;;2.97;;
69789;SDS011;57064;52.046;4.800;2023-04-25T04:04:27;9.43;;;2.47;;
69789;SDS011;57064;52.046;4.800;2023-04-25T04:06:53;8.77;;;2.38;;
69789;SDS011;57064;52.046;4.800;2023-04-25T04:09:19;8.00;;;2.13;;
69789;SDS011;57064;52.046;4.800;2023-04-25T04:11:45;11.63;;;2.53;;
69789;SDS011;57064;52.046;4.800;2023-04-25T04:14:11;9.90;;;1.88;;
69789;SDS011;57064;52.046;4.800;2023-04-25T04:16:37;7.55;;;2.60;;
69789;SDS011;57064;52.046;4.800;2023-04-25T04:19:03;15.73;;;2.63;;
69789;SDS011;57064;52.046;4.800;2023-04-25T04:21:30;6.30;;;1.85;;
69789;SDS011;57064;52.046;4.800;2023-04-25T04:23:56;11.98;;;2.42;;
69789;SDS011;57064;52.046;4.800;2023-04-25T04:26:24;9.55;;;2.10;;
69789;SDS011;57064;52.046;4.800;2023-04-25T04:28:51;14.48;;;3.15;;
69789;SDS011;57064;52.046;4.800;2023-04-25T04:31:19;15.70;;;2.65;;
69789;SDS011;57064;52.046;4.800;2023-04-25T04:33:46;16.35;;;3.20;;
69789;SDS011;57064;52.046;4.800;2023-04-25T04:36:12;10.40;;;2.00;;
69789;SDS011;57064;52.046;4.800;2023-04-25T04:38:39;19.55;;;3.35;;
69789;SDS011;57064;52.046;4.800;2023-04-25T04:41:06;9.98;;;2.03;;
69789;SDS011;57064;52.046;4.800;2023-04-25T04:43:32;8.98;;;2.78;;
69789;SDS011;57064;52.046;4.800;2023-04-25T04:45:58;12.52;;;2.28;;
69789;SDS011;57064;52.046;4.800;2023-04-25T04:48:28;9.93;;;2.13;;
69789;SDS011;57064;52.046;4.800;2023-04-25T04:50:57;5.95;;;1.80;;
69789;SDS011;57064;52.046;4.800;2023-04-25T04:53:23;9.60;;;2.22;;
69789;SDS011;57064;52.046;4.800;2023-04-25T04:55:50;8.68;;;1.63;;
69789;SDS011;57064;52.046;4.800;2023-04-25T04:58:16;9.00;;;3.22;;
69789;SDS011;57064;52.046;4.800;2023-04-25T05:00:42;11.13;;;2.40;;
69789;SDS011;57064;52.046;4.800;2023-04-25T05:03:08;8.20;;;1.88;;
69789;SDS011;57064;52.046;4.800;2023-04-25T05:05:34;7.07;;;2.13;;
69789;SDS011;57064;52.046;4.800;2023-04-25T05:08:00;5.57;;;1.45;;
69789;SDS011;57064;52.046;4.800;2023-04-25T05:10:26;7.10;;;2.08;;
69789;SDS011;57064;52.046;4.800;2023-04-25T05:12:52;9.68;;;2.03;;
69789;SDS011;57064;52.046;4.800;2023-04-25T05:15:18;4.65;;;1.63;;
69789;SDS011;57064;52.046;4.800;2023-04-25T05:17:44;12.10;;;2.47;;
69789;SDS011;57064;52.046;4.800;2023-04-25T05:20:10;9.18;;;1.70;;
69789;SDS011;57064;52.046;4.800;2023-04-25T05:22:38;10.85;;;2.60;;
69789;SDS011;57064;52.046;4.800;2023-04-25T05:25:06;4.75;;;1.95;;
69789;SDS011;57064;52.046;4.800;2023-04-25T05:27:33;6.22;;;2.10;;
69789;SDS011;57064;52.046;4.800;2023-04-25T05:29:59;4.25;;;2.00;;
69789;SDS011;57064;52.046;4.800;2023-04-25T05:32:26;8.52;;;1.83;;
69789;SDS011;57064;52.046;4.800;2023-04-25T05:34:52;12.68;;;2.05;;
69789;SDS011;57064;52.046;4.800;2023-04-25T05:37:18;8.82;;;2.03;;
69789;SDS011;57064;52.046;4.800;2023-04-25T05:39:44;4.80;;;1.67;;
69789;SDS011;57064;52.046;4.800;2023-04-25T05:42:10;8.38;;;2.42;;
69789;SDS011;57064;52.046;4.800;2023-04-25T05:44:36;7.40;;;1.67;;
69789;SDS011;57064;52.046;4.800;2023-04-25T05:47:02;8.13;;;2.00;;
69789;SDS011;57064;52.046;4.800;2023-04-25T05:49:29;6.22;;;1.90;;
69789;SDS011;57064;52.046;4.800;2023-04-25T05:51:57;11.90;;;2.90;;
69789;SDS011;57064;52.046;4.800;2023-04-25T05:54:23;11.40;;;2.25;;
69789;SDS011;57064;52.046;4.800;2023-04-25T05:56:49;7.82;;;2.17;;
69789;SDS011;57064;52.046;4.800;2023-04-25T05:59:15;7.78;;;1.42;;
69789;SDS011;57064;52.046;4.800;2023-04-25T06:01:41;4.22;;;1.33;;
69789;SDS011;57064;52.046;4.800;2023-04-25T06:04:07;11.43;;;1.73;;
69789;SDS011;57064;52.046;4.800;2023-04-25T06:06:33;8.57;;;1.73;;
69789;SDS011;57064;52.046;4.800;2023-04-25T06:08:59;8.80;;;1.70;;
69789;SDS011;57064;52.046;4.800;2023-04-25T06:11:25;10.55;;;1.98;;
69789;SDS011;57064;52.046;4.800;2023-04-25T06:13:52;8.63;;;1.67;;
69789;SDS011;57064;52.046;4.800;2023-04-25T06:16:18;10.68;;;1.80;;
69789;SDS011;57064;52.046;4.800;2023-04-25T06:18:44;6.03;;;1.58;;
69789;SDS011;57064;52.046;4.800;2023-04-25T06:21:10;12.73;;;2.00;;
69789;SDS011;57064;52.046;4.800;2023-04-25T06:23:36;7.47;;;1.92;;
69789;SDS011;57064;52.046;4.800;2023-04-25T06:26:02;11.60;;;2.30;;
69789;SDS011;57064;52.046;4.800;2023-04-25T06:28:28;7.97;;;1.77;;
69789;SDS011;57064;52.046;4.800;2023-04-25T06:30:54;8.25;;;1.77;;
69789;SDS011;57064;52.046;4.800;2023-04-25T06:33:21;5.32;;;1.83;;
69789;SDS011;57064;52.046;4.800;2023-04-25T06:35:47;8.05;;;1.88;;
69789;SDS011;57064;52.046;4.800;2023-04-25T06:38:13;7.53;;;1.65;;
69789;SDS011;57064;52.046;4.800;2023-04-25T06:40:40;8.73;;;1.67;;
69789;SDS011;57064;52.046;4.800;2023-04-25T06:43:06;3.22;;;1.38;;
69789;SDS011;57064;52.046;4.800;2023-04-25T06:45:32;5.70;;;1.52;;
69789;SDS011;57064;52.046;4.800;2023-04-25T06:47:59;11.93;;;2.05;;
69789;SDS011;57064;52.046;4.800;2023-04-25T06:50:25;2.22;;;1.17;;
69789;SDS011;57064;52.046;4.800;2023-04-25T06:52:51;8.40;;;1.58;;
69789;SDS011;57064;52.046;4.800;2023-04-25T06:55:17;7.25;;;1.80;;
69789;SDS011;57064;52.046;4.800;2023-04-25T06:57:43;5.65;;;1.55;;
69789;SDS011;57064;52.046;4.800;2023-04-25T07:00:09;7.40;;;1.42;;
69789;SDS011;57064;52.046;4.800;2023-04-25T07:02:36;6.30;;;1.23;;
69789;SDS011;57064;52.046;4.800;2023-04-25T07:05:02;5.10;;;1.45;;
69789;SDS011;57064;52.046;4.800;2023-04-25T07:07:32;7.82;;;3.15;;
69789;SDS011;57064;52.046;4.800;2023-04-25T07:09:58;8.20;;;1.52;;
69789;SDS011;57064;52.046;4.800;2023-04-25T07:12:24;5.90;;;2.63;;
69789;SDS011;57064;52.046;4.800;2023-04-25T07:14:50;14.18;;;2.22;;
69789;SDS011;57064;52.046;4.800;2023-04-25T07:17:16;7.53;;;1.50;;
69789;SDS011;57064;52.046;4.800;2023-04-25T07:19:42;12.57;;;1.73;;
69789;SDS011;57064;52.046;4.800;2023-04-25T07:22:08;12.30;;;1.92;;
69789;SDS011;57064;52.046;4.800;2023-04-25T07:24:34;5.55;;;1.48;;
69789;SDS011;57064;52.046;4.800;2023-04-25T07:27:00;10.88;;;2.22;;
69789;SDS011;57064;52.046;4.800;2023-04-25T07:29:27;4.93;;;1.08;;
69789;SDS011;57064;52.046;4.800;2023-04-25T07:31:54;8.45;;;1.50;;
69789;SDS011;57064;52.046;4.800;2023-04-25T07:34:20;6.85;;;1.10;;
69789;SDS011;57064;52.046;4.800;2023-04-25T07:36:46;6.22;;;1.48;;
69789;SDS011;57064;52.046;4.800;2023-04-25T07:39:13;6.68;;;1.20;;
69789;SDS011;57064;52.046;4.800;2023-04-25T07:41:39;6.03;;;1.20;;
69789;SDS011;57064;52.046;4.800;2023-04-25T07:44:05;7.45;;;1.17;;
69789;SDS011;57064;52.046;4.800;2023-04-25T07:46:31;6.72;;;1.45;;
69789;SDS011;57064;52.046;4.800;2023-04-25T07:48:57;8.20;;;1.33;;
69789;SDS011;57064;52.046;4.800;2023-04-25T07:51:23;4.43;;;1.23;;
69789;SDS011;57064;52.046;4.800;2023-04-25T07:53:50;7.80;;;0.98;;
69789;SDS011;57064;52.046;4.800;2023-04-25T07:56:16;4.38;;;1.55;;
69789;SDS011;57064;52.046;4.800;2023-04-25T07:58:42;4.10;;;0.70;;
69789;SDS011;57064;52.046;4.800;2023-04-25T08:01:11;5.30;;;0.80;;
69789;SDS011;57064;52.046;4.800;2023-04-25T08:03:39;4.68;;;1.13;;
69789;SDS011;57064;52.046;4.800;2023-04-25T08:06:05;5.45;;;0.90;;
69789;SDS011;57064;52.046;4.800;2023-04-25T08:08:31;6.90;;;0.80;;
69789;SDS011;57064;52.046;4.800;2023-04-25T08:10:57;7.00;;;1.13;;
69789;SDS011;57064;52.046;4.800;2023-04-25T08:13:24;0.85;;;0.63;;
69789;SDS011;57064;52.046;4.800;2023-04-25T08:15:50;3.13;;;1.00;;
69789;SDS011;57064;52.046;4.800;2023-04-25T08:18:16;5.35;;;1.00;;
69789;SDS011;57064;52.046;4.800;2023-04-25T08:20:43;5.90;;;1.13;;
69789;SDS011;57064;52.046;4.800;2023-04-25T08:23:09;5.72;;;0.90;;
69789;SDS011;57064;52.046;4.800;2023-04-25T08:25:35;8.88;;;1.27;;
69789;SDS011;57064;52.046;4.800;2023-04-25T08:28:01;8.32;;;1.13;;
69789;SDS011;57064;52.046;4.800;2023-04-25T08:30:28;7.78;;;1.70;;
69789;SDS011;57064;52.046;4.800;2023-04-25T08:32:54;3.47;;;0.73;;
69789;SDS011;57064;52.046;4.800;2023-04-25T08:35:20;5.35;;;0.98;;
69789;SDS011;57064;52.046;4.800;2023-04-25T08:37:46;2.88;;;0.82;;
69789;SDS011;57064;52.046;4.800;2023-04-25T08:40:14;5.93;;;0.95;;
69789;SDS011;57064;52.046;4.800;2023-04-25T08:42:41;12.32;;;1.42;;
69789;SDS011;57064;52.046;4.800;2023-04-25T08:45:08;9.35;;;1.08;;
69789;SDS011;57064;52.046;4.800;2023-04-25T08:47:34;4.65;;;0.90;;
69789;SDS011;57064;52.046;4.800;2023-04-25T08:50:03;3.08;;;1.30;;
69789;SDS011;57064;52.046;4.800;2023-04-25T08:52:32;6.57;;;0.80;;
69789;SDS011;57064;52.046;4.800;2023-04-25T08:55:03;7.38;;;1.20;;
69789;SDS011;57064;52.046;4.800;2023-04-25T08:57:31;3.92;;;0.73;;
69789;SDS011;57064;52.046;4.800;2023-04-25T08:59:58;5.80;;;0.88;;
69789;SDS011;57064;52.046;4.800;2023-04-25T09:02:25;5.47;;;0.95;;
69789;SDS011;57064;52.046;4.800;2023-04-25T09:04:52;4.97;;;0.88;;
69789;SDS011;57064;52.046;4.800;2023-04-25T09:07:20;4.93;;;0.93;;
69789;SDS011;57064;52.046;4.800;2023-04-25T09:09:46;7.97;;;0.68;;
69789;SDS011;57064;52.046;4.800;2023-04-25T09:12:13;5.57;;;1.08;;
69789;SDS011;57064;52.046;4.800;2023-04-25T09:14:39;10.43;;;0.90;;
69789;SDS011;57064;52.046;4.800;2023-04-25T09:17:07;6.18;;;1.00;;
69789;SDS011;57064;52.046;4.800;2023-04-25T09:19:34;5.13;;;0.80;;
69789;SDS011;57064;52.046;4.800;2023-04-25T09:22:03;5.28;;;0.50;;
69789;SDS011;57064;52.046;4.800;2023-04-25T09:24:30;5.05;;;1.08;;
69789;SDS011;57064;52.046;4.800;2023-04-25T09:26:56;3.03;;;0.60;;
69789;SDS011;57064;52.046;4.800;2023-04-25T09:29:31;6.35;;;1.20;;
69789;SDS011;57064;52.046;4.800;2023-04-25T09:32:15;4.18;;;0.68;;
69789;SDS011;57064;52.046;4.800;2023-04-25T09:34:48;1.98;;;0.73;;
69789;SDS011;57064;52.046;4.800;2023-04-25T09:37:16;1.47;;;0.57;;
69789;SDS011;57064;52.046;4.800;2023-04-25T09:39:48;3.53;;;0.55;;
69789;SDS011;57064;52.046;4.800;2023-04-25T09:42:24;3.28;;;0.82;;
69789;SDS011;57064;52.046;4.800;2023-04-25T09:44:53;1.85;;;0.85;;
69789;SDS011;57064;52.046;4.800;2023-04-25T09:47:20;0.68;;;0.40;;
69789;SDS011;57064;52.046;4.800;2023-04-25T09:49:48;1.52;;;0.30;;
69789;SDS011;57064;52.046;4.800;2023-04-25T09:52:16;3.17;;;0.80;;
69789;SDS011;57064;52.046;4.800;2023-04-25T09:54:46;5.97;;;0.90;;
69789;SDS011;57064;52.046;4.800;2023-04-25T09:59:42;2.30;;;1.40;;
69789;SDS011;57064;52.046;4.800;2023-04-25T10:02:10;10.60;;;1.38;;
69789;SDS011;57064;52.046;4.800;2023-04-25T10:04:37;9.18;;;1.10;;
69789;SDS011;57064;52.046;4.800;2023-04-25T10:07:08;4.60;;;1.00;;
69789;SDS011;57064;52.046;4.800;2023-04-25T10:09:37;11.05;;;0.90;;
69789;SDS011;57064;52.046;4.800;2023-04-25T10:12:04;4.93;;;1.33;;
69789;SDS011;57064;52.046;4.800;2023-04-25T10:14:32;5.90;;;1.50;;
69789;SDS011;57064;52.046;4.800;2023-04-25T10:16:59;6.90;;;1.30;;
69789;SDS011;57064;52.046;4.800;2023-04-25T10:19:26;10.45;;;1.13;;
69789;SDS011;57064;52.046;4.800;2023-04-25T10:24:37;8.80;;;1.20;;
69789;SDS011;57064;52.046;4.800;2023-04-25T10:27:04;4.53;;;0.77;;
69789;SDS011;57064;52.046;4.800;2023-04-25T10:29:31;4.03;;;0.65;;
69789;SDS011;57064;52.046;4.800;2023-04-25T10:31:57;5.10;;;0.80;;
69789;SDS011;57064;52.046;4.800;2023-04-25T10:34:24;3.13;;;1.00;;
69789;SDS011;57064;52.046;4.800;2023-04-25T10:37:10;9.50;;;1.23;;
69789;SDS011;57064;52.046;4.800;2023-04-25T10:39:38;3.85;;;1.10;;
69789;SDS011;57064;52.046;4.800;2023-04-25T10:42:05;8.00;;;1.40;;
69789;SDS011;57064;52.046;4.800;2023-04-25T10:44:32;3.67;;;0.80;;
69789;SDS011;57064;52.046;4.800;2023-04-25T10:47:01;4.60;;;1.00;;
69789;SDS011;57064;52.046;4.800;2023-04-25T10:49:32;3.38;;;1.08;;
69789;SDS011;57064;52.046;4.800;2023-04-25T10:54:47;3.90;;;0.70;;
69789;SDS011;57064;52.046;4.800;2023-04-25T10:57:28;2.85;;;1.65;;
69789;SDS011;57064;52.046;4.800;2023-04-25T11:00:22;5.30;;;0.95;;
69789;SDS011;57064;52.046;4.800;2023-04-25T11:02:52;4.30;;;0.60;;
69789;SDS011;57064;52.046;4.800;2023-04-25T11:07:50;3.47;;;0.70;;
69789;SDS011;57064;52.046;4.800;2023-04-25T11:10:25;4.68;;;0.90;;
69789;SDS011;57064;52.046;4.800;2023-04-25T11:12:52;1.48;;;0.82;;
69789;SDS011;57064;52.046;4.800;2023-04-25T11:15:18;5.85;;;0.68;;
69789;SDS011;57064;52.046;4.800;2023-04-25T11:17:44;4.60;;;1.08;;
69789;SDS011;57064;52.046;4.800;2023-04-25T11:20:11;2.75;;;0.80;;
69789;SDS011;57064;52.046;4.800;2023-04-25T11:22:39;6.65;;;1.13;;
69789;SDS011;57064;52.046;4.800;2023-04-25T11:25:08;3.80;;;0.70;;
69789;SDS011;57064;52.046;4.800;2023-04-25T11:27:51;3.78;;;1.02;;
69789;SDS011;57064;52.046;4.800;2023-04-25T11:30:18;2.83;;;0.50;;
69789;SDS011;57064;52.046;4.800;2023-04-25T11:32:45;5.22;;;0.90;;
69789;SDS011;57064;52.046;4.800;2023-04-25T11:35:12;12.75;;;1.55;;
69789;SDS011;57064;52.046;4.800;2023-04-25T11:37:42;5.95;;;0.70;;
69789;SDS011;57064;52.046;4.800;2023-04-25T11:40:08;4.63;;;0.90;;
69789;SDS011;57064;52.046;4.800;2023-04-25T11:42:37;3.42;;;0.73;;
69789;SDS011;57064;52.046;4.800;2023-04-25T11:45:03;4.30;;;0.80;;
69789;SDS011;57064;52.046;4.800;2023-04-25T11:47:31;2.58;;;0.63;;
69789;SDS011;57064;52.046;4.800;2023-04-25T11:50:07;5.18;;;1.50;;
69789;SDS011;57064;52.046;4.800;2023-04-25T11:52:40;5.85;;;1.27;;
69789;SDS011;57064;52.046;4.800;2023-04-25T11:55:14;3.58;;;0.90;;
69789;SDS011;57064;52.046;4.800;2023-04-25T11:57:41;13.63;;;1.05;;
69789;SDS011;57064;52.046;4.800;2023-04-25T12:00:18;6.30;;;1.05;;
69789;SDS011;57064;52.046;4.800;2023-04-25T12:02:55;4.57;;;1.00;;
69789;SDS011;57064;52.046;4.800;2023-04-25T12:05:27;8.95;;;1.48;;
69789;SDS011;57064;52.046;4.800;2023-04-25T12:07:56;5.88;;;1.23;;
69789;SDS011;57064;52.046;4.800;2023-04-25T12:10:23;6.22;;;1.17;;
69789;SDS011;57064;52.046;4.800;2023-04-25T12:12:50;3.22;;;1.17;;
69789;SDS011;57064;52.046;4.800;2023-04-25T12:15:23;3.53;;;1.10;;
69789;SDS011;57064;52.046;4.800;2023-04-25T12:17:50;3.35;;;1.15;;
69789;SDS011;57064;52.046;4.800;2023-04-25T12:20:19;4.75;;;0.70;;
69789;SDS011;57064;52.046;4.800;2023-04-25T12:22:49;2.75;;;1.13;;
69789;SDS011;57064;52.046;4.800;2023-04-25T12:28:18;6.90;;;1.13;;
69789;SDS011;57064;52.046;4.800;2023-04-25T12:35:55;4.40;;;1.10;;
69789;SDS011;57064;52.046;4.800;2023-04-25T12:38:28;5.60;;;0.90;;
69789;SDS011;57064;52.046;4.800;2023-04-25T12:43:22;7.18;;;0.93;;
69789;SDS011;57064;52.046;4.800;2023-04-25T12:45:51;3.20;;;1.08;;
69789;SDS011;57064;52.046;4.800;2023-04-25T12:48:18;6.18;;;1.30;;
69789;SDS011;57064;52.046;4.800;2023-04-25T12:50:45;2.47;;;0.82;;
69789;SDS011;57064;52.046;4.800;2023-04-25T12:53:21;4.15;;;1.45;;
69789;SDS011;57064;52.046;4.800;2023-04-25T12:55:49;5.68;;;0.80;;
69789;SDS011;57064;52.046;4.800;2023-04-25T12:58:16;6.15;;;1.80;;
69789;SDS011;57064;52.046;4.800;2023-04-25T13:00:43;7.28;;;1.08;;
69789;SDS011;57064;52.046;4.800;2023-04-25T13:03:09;5.03;;;1.13;;
69789;SDS011;57064;52.046;4.800;2023-04-25T13:05:37;2.95;;;0.90;;
69789;SDS011;57064;52.046;4.800;2023-04-25T13:08:03;6.57;;;1.08;;
69789;SDS011;57064;52.046;4.800;2023-04-25T13:10:30;5.90;;;1.23;;
69789;SDS011;57064;52.046;4.800;2023-04-25T13:12:56;4.18;;;1.27;;
69789;SDS011;57064;52.046;4.800;2023-04-25T13:15:22;4.00;;;0.93;;
69789;SDS011;57064;52.046;4.800;2023-04-25T13:17:48;5.47;;;0.90;;
69789;SDS011;57064;52.046;4.800;2023-04-25T13:20:14;10.73;;;1.98;;
69789;SDS011;57064;52.046;4.800;2023-04-25T13:22:41;3.72;;;1.02;;
69789;SDS011;57064;52.046;4.800;2023-04-25T13:25:10;3.63;;;0.90;;
69789;SDS011;57064;52.046;4.800;2023-04-25T13:27:36;4.10;;;1.27;;
69789;SDS011;57064;52.046;4.800;2023-04-25T13:30:04;12.02;;;1.40;;
69789;SDS011;57064;52.046;4.800;2023-04-25T13:32:37;6.43;;;1.38;;
69789;SDS011;57064;52.046;4.800;2023-04-25T13:35:04;4.68;;;1.67;;
69789;SDS011;57064;52.046;4.800;2023-04-25T13:37:34;6.53;;;1.90;;
69789;SDS011;57064;52.046;4.800;2023-04-25T13:40:01;2.75;;;1.17;;
69789;SDS011;57064;52.046;4.800;2023-04-25T13:42:29;7.22;;;1.33;;
69789;SDS011;57064;52.046;4.800;2023-04-25T13:44:56;4.25;;;1.50;;
69789;SDS011;57064;52.046;4.800;2023-04-25T13:47:22;5.20;;;1.45;;
69789;SDS011;57064;52.046;4.800;2023-04-25T13:49:49;5.88;;;1.77;;
69789;SDS011;57064;52.046;4.800;2023-04-25T13:52:16;8.10;;;2.05;;
69789;SDS011;57064;52.046;4.800;2023-04-25T13:54:42;5.90;;;1.77;;
69789;SDS011;57064;52.046;4.800;2023-04-25T13:57:08;6.68;;;1.27;;
69789;SDS011;57064;52.046;4.800;2023-04-25T13:59:36;7.43;;;1.48;;
69789;SDS011;57064;52.046;4.800;2023-04-25T14:02:02;6.82;;;1.38;;
69789;SDS011;57064;52.046;4.800;2023-04-25T14:04:28;5.22;;;1.10;;
69789;SDS011;57064;52.046;4.800;2023-04-25T14:06:55;4.78;;;1.13;;
69789;SDS011;57064;52.046;4.800;2023-04-25T14:09:21;6.78;;;1.48;;
69789;SDS011;57064;52.046;4.800;2023-04-25T14:11:50;5.03;;;1.33;;
69789;SDS011;57064;52.046;4.800;2023-04-25T14:14:20;3.47;;;1.10;;
69789;SDS011;57064;52.046;4.800;2023-04-25T14:16:47;4.60;;;0.65;;
69789;SDS011;57064;52.046;4.800;2023-04-25T14:19:15;5.20;;;1.13;;
69789;SDS011;57064;52.046;4.800;2023-04-25T14:21:42;5.97;;;1.00;;
69789;SDS011;57064;52.046;4.800;2023-04-25T14:24:08;3.38;;;1.10;;
69789;SDS011;57064;52.046;4.800;2023-04-25T14:26:36;4.75;;;1.10;;
69789;SDS011;57064;52.046;4.800;2023-04-25T14:29:03;6.68;;;1.40;;
69789;SDS011;57064;52.046;4.800;2023-04-25T14:31:30;1.90;;;0.80;;
69789;SDS011;57064;52.046;4.800;2023-04-25T14:33:56;2.47;;;0.60;;
69789;SDS011;57064;52.046;4.800;2023-04-25T14:36:22;3.65;;;0.93;;
69789;SDS011;57064;52.046;4.800;2023-04-25T14:38:49;5.75;;;1.48;;
69789;SDS011;57064;52.046;4.800;2023-04-25T14:41:15;4.78;;;1.30;;
69789;SDS011;57064;52.046;4.800;2023-04-25T14:43:41;3.92;;;1.13;;
69789;SDS011;57064;52.046;4.800;2023-04-25T14:46:07;3.97;;;0.80;;
69789;SDS011;57064;52.046;4.800;2023-04-25T14:48:33;4.50;;;0.95;;
69789;SDS011;57064;52.046;4.800;2023-04-25T14:51:00;3.08;;;0.73;;
69789;SDS011;57064;52.046;4.800;2023-04-25T14:53:26;4.80;;;0.82;;
69789;SDS011;57064;52.046;4.800;2023-04-25T14:55:52;6.32;;;1.33;;
69789;SDS011;57064;52.046;4.800;2023-04-25T14:58:19;3.83;;;0.98;;
69789;SDS011;57064;52.046;4.800;2023-04-25T15:00:45;12.70;;;1.30;;
69789;SDS011;57064;52.046;4.800;2023-04-25T15:03:12;3.60;;;1.02;;